createdAt,value
2022-07-27T00:03:18.851Z,95622.00
2022-07-27T00:07:21.599Z,95612.00
2022-07-27T00:11:25.836Z,95605.00
2022-07-27T00:15:28.834Z,95605.00
2022-07-27T00:19:31.602Z,95605.00
2022-07-27T00:23:34.386Z,95599.00
2022-07-27T00:27:38.493Z,95591.00
2022-07-27T00:31:41.285Z,95588.00
2022-07-27T00:35:44.171Z,95586.00
2022-07-27T00:39:46.941Z,95587.00
2022-07-27T00:43:58.880Z,95580.00
2022-07-27T00:48:01.643Z,95573.00
2022-07-27T00:52:04.553Z,95584.00
2022-07-27T00:56:08.134Z,95578.00
2022-07-27T01:00:13.268Z,95586.00
2022-07-27T01:04:16.037Z,95570.00
2022-07-27T01:08:19.398Z,95575.00
2022-07-27T01:12:22.302Z,95567.00
2022-07-27T01:16:27.381Z,95559.00
2022-07-27T01:20:30.179Z,95552.00
2022-07-27T01:24:34.352Z,95560.00
2022-07-27T01:28:37.091Z,95550.00
2022-07-27T01:32:39.818Z,95539.00
2022-07-27T01:36:42.642Z,95524.00
2022-07-27T01:40:46.765Z,95533.00
2022-07-27T01:44:49.527Z,95529.00
2022-07-27T01:48:52.374Z,95523.00
2022-07-27T01:52:55.232Z,95519.00
2022-07-27T01:56:59.415Z,95523.00
2022-07-27T02:01:02.138Z,95519.00
2022-07-27T02:05:05.614Z,95517.00
2022-07-27T02:09:08.787Z,95530.00
2022-07-27T02:13:15.375Z,95517.00
2022-07-27T02:17:25.853Z,95525.00
2022-07-27T02:21:32.476Z,95527.00
2022-07-27T02:25:36.112Z,95522.00
2022-07-27T02:29:40.246Z,95520.00
2022-07-27T02:33:42.988Z,95531.00
2022-07-27T02:37:45.762Z,95529.00
2022-07-27T02:41:49.230Z,95516.00
2022-07-27T02:45:53.675Z,95529.00
2022-07-27T02:49:56.482Z,95535.00
2022-07-27T02:53:59.252Z,95535.00
2022-07-27T02:58:03.421Z,95545.00
2022-07-27T03:02:07.603Z,95539.00
2022-07-27T03:06:11.772Z,95549.00
2022-07-27T03:10:14.534Z,95558.00
2022-07-27T03:14:17.291Z,95551.00
2022-07-27T03:18:21.502Z,95560.00
2022-07-27T03:22:24.233Z,95559.00
2022-07-27T03:26:26.964Z,95554.00
2022-07-27T03:30:29.821Z,95545.00
2022-07-27T03:34:33.983Z,95546.00
2022-07-27T03:38:36.737Z,95546.00
2022-07-27T03:42:40.196Z,95549.00
2022-07-27T03:46:42.947Z,95555.00
2022-07-27T03:50:47.016Z,95547.00
2022-07-27T03:54:49.878Z,95543.00
2022-07-27T03:58:52.640Z,95524.00
2022-07-27T04:02:55.448Z,95527.00
2022-07-27T04:06:59.887Z,95530.00
2022-07-27T04:11:02.690Z,95522.00
2022-07-27T04:15:06.302Z,95517.00
2022-07-27T04:19:09.478Z,95511.00
2022-07-27T04:23:13.960Z,95515.00
2022-07-27T04:27:16.812Z,95514.00
2022-07-27T04:31:19.701Z,95518.00
2022-07-27T04:35:26.294Z,95509.00
2022-07-27T04:39:30.888Z,95502.00
2022-07-27T04:43:33.714Z,95502.00
2022-07-27T04:47:36.503Z,95506.00
2022-07-27T04:51:39.247Z,95495.00
2022-07-27T04:55:44.529Z,95506.00
2022-07-27T04:59:47.428Z,95509.00
2022-07-27T05:03:50.297Z,95514.00
2022-07-27T05:07:53.314Z,95516.00
2022-07-27T05:11:57.423Z,95514.00
2022-07-27T05:16:00.212Z,95503.00
2022-07-27T05:20:03.628Z,95515.00
2022-07-27T05:24:06.880Z,95522.00
2022-07-27T05:28:12.377Z,95533.00
2022-07-27T05:32:15.158Z,95529.00
2022-07-27T05:36:17.978Z,95541.00
2022-07-27T05:40:20.715Z,95541.00
2022-07-27T05:44:24.804Z,95544.00
2022-07-27T05:48:27.598Z,95546.00
2022-07-27T05:52:30.355Z,95539.00
2022-07-27T05:56:33.339Z,95543.00
2022-07-27T06:00:37.553Z,95540.00
2022-07-27T06:04:40.393Z,95549.00
2022-07-27T06:08:43.183Z,95551.00
2022-07-27T06:12:47.455Z,95553.00
2022-07-27T06:16:51.615Z,95555.00
2022-07-27T06:20:54.447Z,95552.00
2022-07-27T06:24:57.200Z,95543.00
2022-07-27T06:29:01.232Z,95547.00
2022-07-27T06:33:06.535Z,95535.00
2022-07-27T06:37:09.282Z,95539.00
2022-07-27T06:41:12.019Z,95550.00
2022-07-27T06:45:14.893Z,95560.00
2022-07-27T06:49:19.039Z,95540.00
2022-07-27T06:53:22.281Z,95540.00
2022-07-27T06:57:25.055Z,95546.00
2022-07-27T07:01:27.837Z,95552.00
2022-07-27T07:05:32.959Z,95561.00
2022-07-27T07:09:41.243Z,95573.00
2022-07-27T07:13:45.147Z,95562.00
2022-07-27T07:17:48.043Z,95563.00
2022-07-27T07:21:52.201Z,95563.00
2022-07-27T07:25:55.040Z,95568.00
2022-07-27T07:29:58.023Z,95555.00
2022-07-27T07:34:01.083Z,95561.00
2022-07-27T07:38:05.442Z,95570.00
2022-07-27T07:42:10.966Z,95568.00
2022-07-27T07:46:14.035Z,95568.00
2022-07-27T07:50:17.521Z,95564.00
2022-07-27T07:54:21.676Z,95567.00
2022-07-27T07:58:24.489Z,95566.00
2022-07-27T08:02:27.376Z,95576.00
2022-07-27T08:06:31.731Z,95577.00
2022-07-27T08:10:36.326Z,95568.00
2022-07-27T08:14:39.099Z,95570.00
2022-07-27T08:18:42.027Z,95567.00
2022-07-27T08:22:46.044Z,95566.00
2022-07-27T08:26:50.162Z,95574.00
2022-07-27T08:30:53.115Z,95568.00
2022-07-27T08:34:56.220Z,95579.00
2022-07-27T08:39:01.893Z,95580.00
2022-07-27T08:43:07.943Z,95583.00
2022-07-27T08:47:11.748Z,95585.00
2022-07-27T08:51:14.757Z,95579.00
2022-07-27T08:55:17.772Z,95585.00
2022-07-27T08:59:22.000Z,95583.00
2022-07-27T09:03:24.918Z,95585.00
2022-07-27T09:07:29.533Z,95589.00
2022-07-27T09:11:36.479Z,95597.00
2022-07-27T09:16:12.793Z,95597.00
2022-07-27T09:20:17.644Z,95596.00
2022-07-27T09:24:47.017Z,95602.00
2022-07-27T09:28:45.043Z,95594.00
2022-07-27T09:32:57.820Z,95595.00
2022-07-27T09:37:05.955Z,95592.00
2022-07-27T09:41:08.886Z,95584.00
2022-07-27T09:45:34.115Z,95605.00
2022-07-27T09:49:38.499Z,95597.00
2022-07-27T09:53:43.414Z,95603.00
2022-07-27T09:57:54.668Z,95596.00
2022-07-27T10:01:58.899Z,95595.00
2022-07-27T10:06:04.378Z,95603.00
2022-07-27T10:10:09.282Z,95592.00
2022-07-27T10:14:12.718Z,95580.00
2022-07-27T10:18:20.384Z,95601.00
2022-07-27T10:22:51.544Z,95601.00
2022-07-27T10:26:54.434Z,95593.00
2022-07-27T10:31:17.238Z,95613.00
2022-07-27T10:35:34.233Z,95617.00
2022-07-27T10:39:40.703Z,95616.00
2022-07-27T10:43:43.463Z,95621.00
2022-07-27T10:47:47.614Z,95619.00
2022-07-27T10:51:50.526Z,95613.00
2022-07-27T10:55:54.659Z,95604.00
2022-07-27T11:00:08.709Z,95620.00
2022-07-27T11:04:14.921Z,95619.00
2022-07-27T11:08:38.189Z,95612.00
2022-07-27T11:12:44.306Z,95626.00
2022-07-27T11:16:55.480Z,95614.00
2022-07-27T11:21:14.598Z,95616.00
2022-07-27T11:25:17.483Z,95622.00
2022-07-27T11:29:24.263Z,95613.00
2022-07-27T11:33:27.414Z,95617.00
2022-07-27T11:37:30.159Z,95609.00
2022-07-27T11:41:55.821Z,95590.00
2022-07-27T11:45:58.887Z,95599.00
2022-07-27T11:50:07.219Z,95597.00
2022-07-27T11:54:11.892Z,95604.00
2022-07-27T11:58:18.306Z,95603.00
2022-07-27T12:02:23.115Z,95604.00
2022-07-27T12:06:26.043Z,95605.00
2022-07-27T12:10:28.787Z,95603.00
2022-07-27T12:14:37.643Z,95607.00
2022-07-27T12:18:44.976Z,95613.00
2022-07-27T12:22:49.112Z,95616.00
2022-07-27T12:27:06.589Z,95614.00
2022-07-27T12:31:18.245Z,95620.00
2022-07-27T12:35:31.542Z,95606.00
2022-07-27T12:39:37.187Z,95607.00
2022-07-27T12:43:39.957Z,95603.00
2022-07-27T12:47:42.930Z,95604.00
2022-07-27T12:51:47.039Z,95605.00
2022-07-27T12:55:49.857Z,95603.00
2022-07-27T12:59:52.740Z,95584.00
2022-07-27T13:03:55.516Z,95601.00
2022-07-27T13:08:00.006Z,95599.00
2022-07-27T13:12:03.525Z,95595.00
2022-07-27T13:16:06.685Z,95598.00
2022-07-27T13:20:11.304Z,95601.00
2022-07-27T13:24:15.777Z,95605.00
2022-07-27T13:28:20.165Z,95604.00
2022-07-27T13:32:23.317Z,95605.00
2022-07-27T13:36:26.131Z,95610.00
2022-07-27T13:40:30.385Z,95608.00
2022-07-27T13:45:02.111Z,95597.00
2022-07-27T13:48:56.161Z,95604.00
2022-07-27T13:52:58.939Z,95581.00
2022-07-27T13:57:03.058Z,95598.00
2022-07-27T14:01:07.789Z,95599.00
2022-07-27T14:05:13.044Z,95600.00
2022-07-27T14:09:17.809Z,95607.00
2022-07-27T14:13:24.740Z,95606.00
2022-07-27T14:17:27.571Z,95608.00
2022-07-27T14:21:31.601Z,95602.00
2022-07-27T14:25:35.246Z,95593.00
2022-07-27T14:29:39.405Z,95592.00
2022-07-27T14:33:42.228Z,95585.00
2022-07-27T14:37:45.496Z,95583.00
2022-07-27T14:41:48.277Z,95571.00
2022-07-27T14:45:52.479Z,95574.00
2022-07-27T14:49:55.380Z,95574.00
2022-07-27T14:53:58.202Z,95577.00
2022-07-27T14:58:01.047Z,95586.00
2022-07-27T15:02:06.057Z,95592.00
2022-07-27T15:06:08.893Z,95585.00
2022-07-27T15:10:11.709Z,95579.00
2022-07-27T15:14:14.524Z,95581.00
2022-07-27T15:18:20.949Z,95584.00
2022-07-27T15:22:24.780Z,95582.00
2022-07-27T15:26:27.631Z,95584.00
2022-07-27T15:30:33.747Z,95572.00
2022-07-27T15:34:40.774Z,95576.00
2022-07-27T15:38:43.555Z,95582.00
2022-07-27T15:42:46.451Z,95584.00
2022-07-27T15:46:49.690Z,95580.00
2022-07-27T15:50:54.715Z,95574.00
2022-07-27T15:54:57.481Z,95575.00
2022-07-27T15:59:00.285Z,95573.00
2022-07-27T16:03:03.165Z,95576.00
2022-07-27T16:07:07.266Z,95575.00
2022-07-27T16:11:10.205Z,95572.00
2022-07-27T16:15:13.004Z,95566.00
2022-07-27T16:19:15.950Z,95562.00
2022-07-27T16:23:21.657Z,95559.00
2022-07-27T16:27:24.918Z,95552.00
2022-07-27T16:31:29.078Z,95556.00
2022-07-27T16:35:34.448Z,95556.00
2022-07-27T16:39:39.536Z,95555.00
2022-07-27T16:43:42.320Z,95560.00
2022-07-27T16:47:45.130Z,95561.00
2022-07-27T16:51:48.730Z,95562.00
2022-07-27T16:55:52.997Z,95568.00
2022-07-27T16:59:55.794Z,95566.00
2022-07-27T17:03:59.020Z,95565.00
2022-07-27T17:08:01.936Z,95556.00
2022-07-27T17:12:06.526Z,95559.00
2022-07-27T17:16:09.489Z,95550.00
2022-07-27T17:20:13.036Z,95561.00
2022-07-27T17:24:18.185Z,95554.00
2022-07-27T17:28:25.481Z,95560.00
2022-07-27T17:32:28.258Z,95561.00
2022-07-27T17:36:31.126Z,95567.00
2022-07-27T17:40:34.006Z,95570.00
2022-07-27T17:44:39.332Z,95575.00
2022-07-27T17:48:42.299Z,95583.00
2022-07-27T17:52:45.177Z,95572.00
2022-07-27T17:56:47.950Z,95575.00
2022-07-27T18:00:52.122Z,95585.00
2022-07-27T18:04:54.962Z,95589.00
2022-07-27T18:08:57.712Z,95575.00
2022-07-27T18:13:00.527Z,95578.00
2022-07-27T18:17:04.784Z,95584.00
2022-07-27T18:21:08.594Z,95586.00
2022-07-27T18:25:11.878Z,95582.00
2022-07-27T18:29:16.208Z,95583.00
2022-07-27T18:33:20.958Z,95581.00
2022-07-27T18:37:24.040Z,95589.00
2022-07-27T18:41:28.334Z,95593.00
2022-07-27T18:45:34.549Z,95593.00
2022-07-27T18:49:39.075Z,95596.00
2022-07-27T18:53:43.908Z,95603.00
2022-07-27T18:57:47.742Z,95607.00
2022-07-27T19:01:51.148Z,95614.00
2022-07-27T19:05:55.649Z,95616.00
2022-07-27T19:09:58.586Z,95621.00
2022-07-27T19:14:01.560Z,95626.00
2022-07-27T19:18:04.447Z,95634.00
2022-07-27T19:22:08.631Z,95640.00
2022-07-27T19:26:11.405Z,95642.00
2022-07-27T19:30:15.574Z,95647.00
2022-07-27T19:34:19.784Z,95659.00
2022-07-27T19:38:23.906Z,95656.00
2022-07-27T19:42:26.684Z,95663.00
2022-07-27T19:46:29.613Z,95665.00
2022-07-27T19:50:32.441Z,95666.00
2022-07-27T19:54:36.777Z,95672.00
2022-07-27T19:58:39.627Z,95684.00
2022-07-27T20:02:42.496Z,95683.00
2022-07-27T20:06:45.346Z,95681.00
2022-07-27T20:10:49.691Z,95671.00
2022-07-27T20:14:52.540Z,95674.00
2022-07-27T20:18:55.336Z,95681.00
2022-07-27T20:22:58.403Z,95683.00
2022-07-27T20:27:02.523Z,95687.00
2022-07-27T20:31:05.449Z,95681.00
2022-07-27T20:35:08.787Z,95695.00
2022-07-27T20:39:15.432Z,95698.00
2022-07-27T20:43:21.522Z,95691.00
2022-07-27T20:47:24.477Z,95701.00
2022-07-27T20:51:27.565Z,95703.00
2022-07-27T20:55:30.805Z,95710.00
2022-07-27T20:59:34.976Z,95720.00
2022-07-27T21:03:38.281Z,95723.00
2022-07-27T21:07:41.024Z,95718.00
2022-07-27T21:11:43.744Z,95705.00
2022-07-27T21:15:47.855Z,95718.00
2022-07-27T21:19:50.628Z,95718.00
2022-07-27T21:24:11.355Z,95711.00
2022-07-27T21:28:16.872Z,95723.00
2022-07-27T21:32:22.743Z,95716.00
2022-07-27T21:36:25.708Z,95700.00
2022-07-27T21:40:30.353Z,95705.00
2022-07-27T21:44:33.091Z,95704.00
2022-07-27T21:48:37.483Z,95708.00
2022-07-27T21:52:40.271Z,95708.00
2022-07-27T21:56:50.364Z,95708.00
2022-07-27T22:00:53.955Z,95700.00
2022-07-27T22:04:58.136Z,95699.00
2022-07-27T22:09:01.271Z,95700.00
2022-07-27T22:13:04.117Z,95689.00
2022-07-27T22:17:06.975Z,95694.00
2022-07-27T22:21:11.182Z,95689.00
2022-07-27T22:25:14.646Z,95701.00
2022-07-27T22:29:17.445Z,95701.00
2022-07-27T22:33:20.283Z,95703.00
2022-07-27T22:37:24.415Z,95698.00
2022-07-27T22:41:27.188Z,95695.00
2022-07-27T22:45:30.045Z,95704.00
2022-07-27T22:49:35.842Z,95697.00
2022-07-27T22:53:39.999Z,95695.00
2022-07-27T22:57:42.887Z,95688.00
2022-07-27T23:01:47.716Z,95692.00
2022-07-27T23:05:50.882Z,95701.00
2022-07-27T23:09:56.960Z,95696.00
2022-07-27T23:14:00.164Z,95691.00
2022-07-27T23:18:02.946Z,95688.00
2022-07-27T23:22:05.710Z,95676.00
2022-07-27T23:26:15.040Z,95675.00
2022-07-27T23:30:18.065Z,95669.00
2022-07-27T23:34:20.939Z,95671.00
2022-07-27T23:38:23.686Z,95673.00
2022-07-27T23:42:27.984Z,95675.00
2022-07-27T23:46:30.888Z,95668.00
2022-07-27T23:50:33.736Z,95667.00
2022-07-27T23:54:36.504Z,95662.00
2022-07-27T23:58:40.779Z,95669.00
